createdAt,value
2023-03-08T00:01:17.587Z,98600.63
2023-03-08T00:03:45.891Z,98599.00
2023-03-08T00:06:17.521Z,98599.22
2023-03-08T00:08:46.292Z,98594.88
2023-03-08T00:11:14.848Z,98601.16
2023-03-08T00:13:43.413Z,98608.78
2023-03-08T00:16:13.560Z,98610.31
2023-03-08T00:18:42.261Z,98611.13
2023-03-08T00:21:11.854Z,98616.00
2023-03-08T00:23:41.255Z,98613.78
2023-03-08T00:26:09.465Z,98614.00
2023-03-08T00:28:37.380Z,98607.91
2023-03-08T00:31:06.584Z,98614.22
2023-03-08T00:33:34.681Z,98603.06
2023-03-08T00:36:04.376Z,98605.94
2023-03-08T00:38:32.998Z,98604.88
2023-03-08T00:41:02.391Z,98608.47
2023-03-08T00:43:36.108Z,98610.91
2023-03-08T00:46:07.304Z,98605.53
2023-03-08T00:48:35.400Z,98608.44
2023-03-08T00:51:06.230Z,98606.38
2023-03-08T00:53:34.681Z,98607.94
2023-03-08T00:56:04.224Z,98598.28
2023-03-08T00:58:33.182Z,98597.09
2023-03-08T01:01:01.672Z,98595.00
2023-03-08T01:03:30.490Z,98598.47
2023-03-08T01:05:59.275Z,98592.34
2023-03-08T01:08:27.826Z,98589.03
2023-03-08T01:10:58.195Z,98591.22
2023-03-08T01:13:28.075Z,98588.41
2023-03-08T01:15:57.152Z,98596.22
2023-03-08T01:18:24.992Z,98595.44
2023-03-08T01:20:56.856Z,98581.31
2023-03-08T01:23:25.104Z,98579.84
2023-03-08T01:25:59.341Z,98579.19
2023-03-08T01:28:28.599Z,98566.69
2023-03-08T01:31:02.300Z,98575.94
2023-03-08T01:33:30.369Z,98576.13
2023-03-08T01:36:00.328Z,98572.34
2023-03-08T01:38:28.397Z,98574.19
2023-03-08T01:40:57.491Z,98562.34
2023-03-08T01:43:26.576Z,98562.13
2023-03-08T01:46:12.877Z,98559.00
2023-03-08T01:48:47.165Z,98557.88
2023-03-08T01:51:21.515Z,98557.00
2023-03-08T01:53:49.846Z,98548.94
2023-03-08T01:56:20.868Z,98547.78
2023-03-08T01:58:50.463Z,98535.72
2023-03-08T02:01:19.430Z,98541.59
2023-03-08T02:03:50.370Z,98535.69
2023-03-08T02:06:21.523Z,98537.59
2023-03-08T02:08:49.592Z,98532.63
2023-03-08T02:11:18.316Z,98534.16
2023-03-08T02:13:46.297Z,98517.72
2023-03-08T02:16:16.119Z,98520.69
2023-03-08T02:18:52.972Z,98512.72
2023-03-08T02:21:22.491Z,98514.53
2023-03-08T02:23:51.854Z,98502.56
2023-03-08T02:26:20.189Z,98496.28
2023-03-08T02:28:48.210Z,98500.50
2023-03-08T02:31:16.682Z,98496.41
2023-03-08T02:33:45.906Z,98498.56
2023-03-08T02:36:13.624Z,98488.41
2023-03-08T02:38:41.618Z,98480.88
2023-03-08T02:41:10.948Z,98471.09
2023-03-08T02:43:39.018Z,98472.44
2023-03-08T02:46:07.268Z,98478.78
2023-03-08T02:48:35.169Z,98472.84
2023-03-08T02:51:03.053Z,98473.31
2023-03-08T02:53:31.265Z,98466.59
2023-03-08T02:56:00.940Z,98472.75
2023-03-08T02:58:30.746Z,98461.75
2023-03-08T03:00:58.733Z,98463.41
2023-03-08T03:03:26.904Z,98458.88
2023-03-08T03:05:54.845Z,98452.75
2023-03-08T03:08:30.652Z,98453.69
2023-03-08T03:10:58.659Z,98449.16
2023-03-08T03:13:26.509Z,98454.41
2023-03-08T03:15:55.990Z,98446.69
2023-03-08T03:18:23.919Z,98445.56
2023-03-08T03:20:51.799Z,98453.69
2023-03-08T03:23:19.725Z,98449.34
2023-03-08T03:25:53.419Z,98452.22
2023-03-08T03:28:22.114Z,98454.47
2023-03-08T03:30:50.813Z,98444.19
2023-03-08T03:33:20.276Z,98444.41
2023-03-08T03:35:48.395Z,98444.19
2023-03-08T03:38:16.640Z,98449.94
2023-03-08T03:40:46.300Z,98448.31
2023-03-08T03:43:14.471Z,98443.63
2023-03-08T03:45:42.435Z,98450.78
2023-03-08T03:48:10.449Z,98446.16
2023-03-08T03:50:40.204Z,98446.25
2023-03-08T03:53:13.464Z,98445.75
2023-03-08T03:55:41.596Z,98435.84
2023-03-08T03:58:09.508Z,98442.34
2023-03-08T04:00:38.327Z,98448.16
2023-03-08T04:03:16.283Z,98449.94
2023-03-08T04:05:46.040Z,98454.66
2023-03-08T04:08:14.123Z,98445.19
2023-03-08T04:10:43.059Z,98438.88
2023-03-08T04:13:12.231Z,98429.69
2023-03-08T04:15:41.478Z,98423.84
2023-03-08T04:18:13.065Z,98425.75
2023-03-08T04:20:46.574Z,98430.00
2023-03-08T04:23:15.544Z,98418.59
2023-03-08T04:25:45.233Z,98421.69
2023-03-08T04:28:16.051Z,98415.81
2023-03-08T04:30:46.368Z,98416.25
2023-03-08T04:33:15.566Z,98400.44
2023-03-08T04:35:49.647Z,98406.94
2023-03-08T04:38:20.098Z,98408.84
2023-03-08T04:41:11.840Z,98403.63
2023-03-08T04:44:05.591Z,98398.03
2023-03-08T04:46:39.693Z,98398.03
2023-03-08T04:49:08.759Z,98402.88
2023-03-08T04:51:43.444Z,98397.91
2023-03-08T04:54:13.190Z,98398.34
2023-03-08T04:56:47.086Z,98395.06
2023-03-08T04:59:17.139Z,98394.13
2023-03-08T05:01:45.502Z,98388.16
2023-03-08T05:04:13.953Z,98392.66
2023-03-08T05:06:44.353Z,98391.53
2023-03-08T05:09:16.197Z,98389.94
2023-03-08T05:11:46.324Z,98385.00
2023-03-08T05:14:16.419Z,98382.53
2023-03-08T05:16:44.401Z,98383.13
2023-03-08T05:19:13.366Z,98372.75
2023-03-08T05:21:49.600Z,98366.59
2023-03-08T05:24:17.489Z,98373.31
2023-03-08T05:26:45.896Z,98368.72
2023-03-08T05:29:17.919Z,98366.72
2023-03-08T05:31:46.928Z,98365.59
2023-03-08T05:34:16.231Z,98359.94
2023-03-08T05:36:49.162Z,98355.63
2023-03-08T05:39:17.438Z,98356.81
2023-03-08T05:41:57.777Z,98350.31
2023-03-08T05:44:35.951Z,98346.84
2023-03-08T05:47:05.683Z,98342.19
2023-03-08T05:49:33.393Z,98341.09
2023-03-08T05:52:02.509Z,98348.78
2023-03-08T05:54:30.304Z,98338.78
2023-03-08T05:57:02.904Z,98333.50
2023-03-08T05:59:31.930Z,98327.97
2023-03-08T06:02:03.407Z,98331.66
2023-03-08T06:04:37.056Z,98329.38
2023-03-08T06:07:06.333Z,98348.84
2023-03-08T06:09:38.930Z,98346.59
2023-03-08T06:12:09.424Z,98343.97
2023-03-08T06:14:37.485Z,98349.50
2023-03-08T06:17:05.697Z,98356.56
2023-03-08T06:19:36.121Z,98352.97
2023-03-08T06:22:03.852Z,98341.41
2023-03-08T06:24:33.743Z,98323.88
2023-03-08T06:27:03.433Z,98323.84
2023-03-08T06:29:31.637Z,98325.06
2023-03-08T06:32:01.662Z,98322.28
2023-03-08T06:34:31.230Z,98315.75
2023-03-08T06:37:00.113Z,98308.91
2023-03-08T06:39:30.869Z,98316.72
2023-03-08T06:42:02.733Z,98315.31
2023-03-08T06:44:31.222Z,98300.53
2023-03-08T06:46:58.797Z,98291.47
2023-03-08T06:49:27.029Z,98291.03
2023-03-08T06:51:55.531Z,98284.09
2023-03-08T06:54:25.876Z,98279.31
2023-03-08T06:56:55.703Z,98269.34
2023-03-08T06:59:25.426Z,98269.25
2023-03-08T07:01:53.009Z,98273.47
2023-03-08T07:04:20.902Z,98263.09
2023-03-08T07:06:48.622Z,98263.19
2023-03-08T07:09:16.387Z,98256.81
2023-03-08T07:11:44.002Z,98250.78
2023-03-08T07:14:12.092Z,98244.13
2023-03-08T07:16:41.004Z,98249.88
2023-03-08T07:19:08.581Z,98243.72
2023-03-08T07:21:37.264Z,98244.66
2023-03-08T07:24:05.013Z,98240.66
2023-03-08T07:26:33.036Z,98228.31
2023-03-08T07:29:00.547Z,98229.25
2023-03-08T07:31:29.101Z,98219.00
2023-03-08T07:33:58.599Z,98233.44
2023-03-08T07:36:26.367Z,98215.47
2023-03-08T07:38:56.212Z,98231.19
2023-03-08T07:41:23.831Z,98206.44
2023-03-08T07:43:51.270Z,98212.84
2023-03-08T07:46:20.920Z,98199.88
2023-03-08T07:48:48.466Z,98187.03
2023-03-08T07:51:17.888Z,98186.69
2023-03-08T07:53:45.976Z,98171.91
2023-03-08T07:56:13.426Z,98184.31
2023-03-08T07:58:41.124Z,98176.28
2023-03-08T08:01:09.524Z,98157.13
2023-03-08T08:03:38.096Z,98149.94
2023-03-08T08:06:07.530Z,98143.41
2023-03-08T08:08:36.475Z,98145.59
2023-03-08T08:11:10.759Z,98145.00
2023-03-08T08:13:38.385Z,98135.66
2023-03-08T08:16:07.794Z,98135.75
2023-03-08T08:18:35.851Z,98122.13
2023-03-08T08:21:03.820Z,98117.72
2023-03-08T08:23:31.680Z,98111.56
2023-03-08T08:26:00.709Z,98105.38
2023-03-08T08:28:29.063Z,98101.78
2023-03-08T08:30:57.445Z,98098.19
2023-03-08T08:33:25.306Z,98088.81
2023-03-08T08:35:53.250Z,98078.56
2023-03-08T08:38:21.532Z,98083.13
2023-03-08T08:40:49.394Z,98088.16
2023-03-08T08:43:18.830Z,98085.38
2023-03-08T08:45:47.686Z,98080.53
2023-03-08T08:48:15.867Z,98075.88
2023-03-08T08:50:44.272Z,98080.06
2023-03-08T08:53:12.216Z,98065.44
2023-03-08T08:55:41.922Z,98057.69
2023-03-08T08:58:10.719Z,98040.44
2023-03-08T09:00:40.448Z,98043.41
2023-03-08T09:03:08.250Z,98039.94
2023-03-08T09:05:39.069Z,98042.25
2023-03-08T09:08:07.775Z,98038.28
2023-03-08T09:10:37.008Z,98023.69
2023-03-08T09:13:05.001Z,98036.28
2023-03-08T09:15:33.032Z,98013.50
2023-03-08T09:18:03.085Z,98019.94
2023-03-08T09:20:31.332Z,98009.38
2023-03-08T09:22:59.516Z,98009.25
2023-03-08T09:25:27.251Z,98002.84
2023-03-08T09:27:55.128Z,98010.75
2023-03-08T09:30:23.377Z,98017.69
2023-03-08T09:32:51.293Z,98018.28
2023-03-08T09:35:20.814Z,98012.19
2023-03-08T09:37:49.253Z,98000.47
2023-03-08T09:40:21.625Z,98012.59
2023-03-08T09:42:49.977Z,98013.84
2023-03-08T09:45:21.057Z,98009.00
2023-03-08T09:47:52.610Z,98004.72
2023-03-08T09:50:29.539Z,98004.94
2023-03-08T09:53:00.549Z,97991.34
2023-03-08T09:55:30.872Z,97992.78
2023-03-08T09:58:01.777Z,97993.09
2023-03-08T10:00:33.109Z,97992.34
2023-03-08T10:03:19.807Z,97986.13
2023-03-08T10:05:52.795Z,97974.28
2023-03-08T10:08:25.196Z,97975.25
2023-03-08T10:10:56.610Z,97969.53
2023-03-08T10:13:28.550Z,97957.13
2023-03-08T10:15:59.852Z,97945.34
2023-03-08T10:18:31.000Z,97950.28
2023-03-08T10:21:01.983Z,97947.69
2023-03-08T10:23:34.217Z,97946.03
2023-03-08T10:26:03.038Z,97936.34
2023-03-08T10:28:30.796Z,97946.53
2023-03-08T10:31:01.732Z,97943.63
2023-03-08T10:33:32.431Z,97936.84
2023-03-08T10:36:03.823Z,97937.84
2023-03-08T10:38:32.750Z,97936.31
2023-03-08T10:41:01.677Z,97935.63
2023-03-08T10:43:30.411Z,97927.50
2023-03-08T10:45:59.812Z,97923.44
2023-03-08T10:48:30.079Z,97914.78
2023-03-08T10:51:03.024Z,97912.66
2023-03-08T10:53:31.246Z,97901.06
2023-03-08T10:55:59.820Z,97900.72
2023-03-08T10:58:29.696Z,97881.75
2023-03-08T11:00:58.939Z,97880.16
2023-03-08T11:03:27.713Z,97876.09
2023-03-08T11:05:57.946Z,97863.59
2023-03-08T11:08:28.892Z,97855.72
2023-03-08T11:11:08.789Z,97855.56
2023-03-08T11:13:37.880Z,97853.72
2023-03-08T11:16:09.771Z,97856.94
2023-03-08T11:18:46.951Z,97850.06
2023-03-08T11:21:18.308Z,97848.66
2023-03-08T11:23:50.380Z,97858.56
2023-03-08T11:26:21.631Z,97857.88
2023-03-08T11:29:04.903Z,97857.03
2023-03-08T11:31:38.128Z,97846.06
2023-03-08T11:34:12.552Z,97849.59
2023-03-08T11:36:45.185Z,97854.63
2023-03-08T11:39:19.822Z,97835.81
2023-03-08T11:41:52.647Z,97827.72
2023-03-08T11:44:27.289Z,97836.31
2023-03-08T11:47:05.595Z,97842.31
2023-03-08T11:49:39.237Z,97834.59
2023-03-08T11:52:11.462Z,97827.94
2023-03-08T11:54:46.377Z,97825.94
2023-03-08T11:57:15.355Z,97828.16
2023-03-08T11:59:44.178Z,97825.78
2023-03-08T12:02:14.807Z,97820.63
2023-03-08T12:04:45.071Z,97817.09
2023-03-08T12:07:17.246Z,97806.38
2023-03-08T12:09:51.055Z,97812.34
2023-03-08T12:12:23.639Z,97806.72
2023-03-08T12:14:57.122Z,97805.53
2023-03-08T12:17:27.333Z,97800.38
2023-03-08T12:19:55.403Z,97808.56
2023-03-08T12:22:28.203Z,97802.16
2023-03-08T12:25:00.757Z,97803.75
2023-03-08T12:27:31.799Z,97790.69
2023-03-08T12:30:02.843Z,97783.53
2023-03-08T12:32:31.387Z,97788.94
2023-03-08T12:35:04.314Z,97790.16
2023-03-08T12:37:32.700Z,97789.00
2023-03-08T12:40:05.852Z,97786.69
2023-03-08T12:42:35.705Z,97786.81
2023-03-08T12:45:24.740Z,97778.97
2023-03-08T12:47:58.407Z,97775.13
2023-03-08T12:50:27.024Z,97767.25
2023-03-08T12:52:56.504Z,97761.03
2023-03-08T12:55:32.035Z,97761.47
2023-03-08T12:58:01.927Z,97752.91
2023-03-08T13:00:31.742Z,97759.13
2023-03-08T13:03:01.095Z,97754.50
2023-03-08T13:05:33.968Z,97753.94
2023-03-08T13:08:09.429Z,97748.56
2023-03-08T13:10:39.802Z,97739.78
2023-03-08T13:13:38.067Z,97752.72
2023-03-08T13:16:11.359Z,97748.41
2023-03-08T13:18:39.950Z,97755.06
2023-03-08T13:21:16.435Z,97746.59
2023-03-08T13:23:48.277Z,97736.84
2023-03-08T13:26:27.354Z,97746.75
2023-03-08T13:28:57.405Z,97744.69
2023-03-08T13:31:29.786Z,97744.69
2023-03-08T13:33:58.459Z,97736.13
2023-03-08T13:36:27.263Z,97715.72
2023-03-08T13:39:00.029Z,97730.16
2023-03-08T13:41:34.495Z,97735.50
2023-03-08T13:44:03.247Z,97735.44
2023-03-08T13:46:31.823Z,97736.84
2023-03-08T13:49:01.784Z,97737.69
2023-03-08T13:51:30.352Z,97738.63
2023-03-08T13:53:58.576Z,97732.81
2023-03-08T13:56:28.257Z,97723.78
2023-03-08T13:58:59.028Z,97730.56
2023-03-08T14:01:28.021Z,97740.13
2023-03-08T14:03:58.509Z,97733.75
2023-03-08T14:06:29.882Z,97732.81
2023-03-08T14:09:00.641Z,97722.59
2023-03-08T14:11:30.145Z,97733.19
2023-03-08T14:14:00.772Z,97725.50
2023-03-08T14:16:32.166Z,97722.34
2023-03-08T14:19:00.894Z,97712.28
2023-03-08T14:21:30.271Z,97710.13
2023-03-08T14:23:59.297Z,97707.94
2023-03-08T14:26:31.774Z,97715.31
2023-03-08T14:29:12.288Z,97710.47
2023-03-08T14:31:42.197Z,97715.53
2023-03-08T14:34:19.820Z,97718.59
2023-03-08T14:36:49.707Z,97687.94
2023-03-08T14:39:19.471Z,97684.72
2023-03-08T14:41:47.638Z,97678.91
2023-03-08T14:44:20.846Z,97664.13
2023-03-08T14:46:49.179Z,97675.41
2023-03-08T14:49:22.097Z,97668.91
2023-03-08T14:51:50.219Z,97666.38
2023-03-08T14:54:23.615Z,97667.41
2023-03-08T14:56:52.421Z,97664.78
2023-03-08T14:59:27.804Z,97681.25
2023-03-08T15:01:56.849Z,97665.53
2023-03-08T15:04:26.893Z,97652.16
2023-03-08T15:06:56.699Z,97648.53
2023-03-08T15:09:26.351Z,97635.63
2023-03-08T15:11:58.586Z,97623.69
2023-03-08T15:14:28.810Z,97601.47
2023-03-08T15:16:58.379Z,97608.97
2023-03-08T15:19:26.259Z,97607.53
2023-03-08T15:21:54.382Z,97604.84
2023-03-08T15:24:23.144Z,97600.22
2023-03-08T15:26:53.022Z,97607.63
2023-03-08T15:29:26.462Z,97610.59
2023-03-08T15:31:56.474Z,97609.91
2023-03-08T15:34:27.484Z,97605.59
2023-03-08T15:36:57.332Z,97608.25
2023-03-08T15:39:25.634Z,97605.91
2023-03-08T15:41:53.891Z,97611.25
2023-03-08T15:44:21.990Z,97613.41
2023-03-08T15:46:52.501Z,97617.47
2023-03-08T15:49:22.460Z,97621.41
2023-03-08T15:51:50.630Z,97622.91
2023-03-08T15:54:18.808Z,97633.41
2023-03-08T15:56:47.050Z,97619.53
2023-03-08T15:59:14.809Z,97612.47
2023-03-08T16:01:42.565Z,97605.44
2023-03-08T16:04:13.355Z,97605.59
2023-03-08T16:06:43.644Z,97604.38
2023-03-08T16:09:11.425Z,97611.47
2023-03-08T16:11:39.220Z,97612.59
2023-03-08T16:14:06.851Z,97621.72
2023-03-08T16:16:45.328Z,97619.09
2023-03-08T16:19:13.698Z,97614.34
2023-03-08T16:21:42.767Z,97612.06
2023-03-08T16:24:11.542Z,97611.78
2023-03-08T16:26:39.284Z,97608.25
2023-03-08T16:29:06.981Z,97599.16
2023-03-08T16:31:35.520Z,97593.09
2023-03-08T16:34:03.655Z,97602.06
2023-03-08T16:36:31.924Z,97606.78
2023-03-08T16:39:00.963Z,97607.75
2023-03-08T16:41:30.049Z,97607.41
2023-03-08T16:43:58.142Z,97602.06
2023-03-08T16:46:25.965Z,97605.00
2023-03-08T16:48:55.155Z,97593.78
2023-03-08T16:51:25.559Z,97586.28
2023-03-08T16:53:53.335Z,97576.84
2023-03-08T16:56:23.365Z,97579.09
2023-03-08T16:58:51.244Z,97574.16
2023-03-08T17:01:20.441Z,97564.09
2023-03-08T17:03:48.848Z,97568.25
2023-03-08T17:06:19.018Z,97568.47
2023-03-08T17:08:49.303Z,97571.56
2023-03-08T17:11:18.131Z,97566.00
2023-03-08T17:13:51.038Z,97561.63
2023-03-08T17:16:19.545Z,97575.69
2023-03-08T17:18:47.690Z,97560.50
2023-03-08T17:21:15.658Z,97562.63
2023-03-08T17:23:44.468Z,97567.75
2023-03-08T17:26:13.993Z,97569.69
2023-03-08T17:28:42.552Z,97574.69
2023-03-08T17:31:13.307Z,97574.38
2023-03-08T17:33:42.058Z,97581.06
2023-03-08T17:36:10.835Z,97585.75
2023-03-08T17:38:39.129Z,97590.63
2023-03-08T17:41:08.397Z,97597.41
2023-03-08T17:43:38.065Z,97592.00
2023-03-08T17:46:08.300Z,97596.56
2023-03-08T17:48:38.268Z,97604.00
2023-03-08T17:51:07.437Z,97607.44
2023-03-08T17:53:37.762Z,97617.19
2023-03-08T17:56:07.519Z,97625.59
2023-03-08T17:58:35.411Z,97663.94
2023-03-08T18:01:10.465Z,97686.56
2023-03-08T18:03:40.115Z,97669.38
2023-03-08T18:06:08.661Z,97666.06
2023-03-08T18:08:37.134Z,97649.97
2023-03-08T18:11:05.606Z,97638.88
2023-03-08T18:13:33.566Z,97637.34
2023-03-08T18:16:03.867Z,97639.41
2023-03-08T18:18:31.982Z,97643.69
2023-03-08T18:21:12.733Z,97670.47
2023-03-08T18:23:43.492Z,97668.59
2023-03-08T18:26:12.909Z,97662.09
2023-03-08T18:28:41.866Z,97655.47
2023-03-08T18:31:11.284Z,97662.09
2023-03-08T18:33:40.559Z,97659.00
2023-03-08T18:36:10.137Z,97667.00
2023-03-08T18:38:38.218Z,97686.47
2023-03-08T18:41:13.380Z,97694.72
2023-03-08T18:43:41.733Z,97679.38
2023-03-08T18:46:12.175Z,97680.66
2023-03-08T18:48:40.539Z,97682.44
2023-03-08T18:51:10.529Z,97673.25
2023-03-08T18:53:38.824Z,97675.69
2023-03-08T18:56:07.005Z,97680.44
2023-03-08T18:58:36.330Z,97672.88
2023-03-08T19:01:10.493Z,97663.91
2023-03-08T19:03:38.715Z,97667.88
2023-03-08T19:06:07.449Z,97671.47
2023-03-08T19:08:38.939Z,97673.91
2023-03-08T19:11:14.096Z,97663.13
2023-03-08T19:13:42.919Z,97658.06
2023-03-08T19:16:20.690Z,97650.91
2023-03-08T19:18:49.728Z,97645.50
2023-03-08T19:21:18.850Z,97649.38
2023-03-08T19:23:48.714Z,97646.88
2023-03-08T19:26:36.486Z,97640.00
2023-03-08T19:29:05.889Z,97633.59
2023-03-08T19:31:34.285Z,97640.59
2023-03-08T19:34:04.719Z,97635.66
2023-03-08T19:36:33.279Z,97651.78
2023-03-08T19:39:03.003Z,97653.41
2023-03-08T19:41:30.979Z,97660.84
2023-03-08T19:44:00.171Z,97653.31
2023-03-08T19:46:28.306Z,97659.25
2023-03-08T19:48:56.412Z,97657.59
2023-03-08T19:51:24.485Z,97654.84
2023-03-08T19:53:52.086Z,97643.63
2023-03-08T19:56:21.497Z,97645.63
2023-03-08T19:58:49.566Z,97640.13
2023-03-08T20:01:18.390Z,97640.34
2023-03-08T20:03:47.018Z,97636.88
2023-03-08T20:06:21.686Z,97636.50
2023-03-08T20:08:49.789Z,97628.94
2023-03-08T20:11:17.663Z,97620.53
2023-03-08T20:13:46.989Z,97623.13
2023-03-08T20:16:14.583Z,97623.06
2023-03-08T20:18:43.329Z,97623.03
2023-03-08T20:21:11.129Z,97626.81
2023-03-08T20:23:39.108Z,97627.31
2023-03-08T20:26:07.566Z,97616.63
2023-03-08T20:28:35.277Z,97618.09
2023-03-08T20:31:09.829Z,97617.84
2023-03-08T20:33:42.324Z,97617.78
2023-03-08T20:36:10.895Z,97620.81
2023-03-08T20:38:38.917Z,97618.41
2023-03-08T20:41:09.665Z,97620.22
2023-03-08T20:43:37.332Z,97615.34
2023-03-08T20:46:06.353Z,97625.19
2023-03-08T20:48:35.973Z,97638.19
2023-03-08T20:51:04.863Z,97632.25
2023-03-08T20:53:33.443Z,97632.81
2023-03-08T20:56:05.609Z,97650.28
2023-03-08T20:58:33.276Z,97648.53
2023-03-08T21:01:01.090Z,97642.44
2023-03-08T21:03:29.061Z,97638.28
2023-03-08T21:05:58.314Z,97634.13
2023-03-08T21:08:26.253Z,97640.44
2023-03-08T21:10:57.814Z,97639.75
2023-03-08T21:13:25.833Z,97632.72
2023-03-08T21:16:01.354Z,97637.38
2023-03-08T21:18:29.609Z,97624.09
2023-03-08T21:20:59.702Z,97631.06
2023-03-08T21:23:27.892Z,97633.03
2023-03-08T21:25:57.374Z,97624.38
2023-03-08T21:32:27.799Z,97609.16
2023-03-08T21:35:02.824Z,97594.06
2023-03-08T21:37:32.140Z,97584.47
2023-03-08T21:40:01.905Z,97582.28
2023-03-08T21:42:32.853Z,97578.53
2023-03-08T21:45:00.954Z,97571.38
2023-03-08T21:47:28.936Z,97565.34
2023-03-08T21:53:51.107Z,97562.31
2023-03-08T21:56:20.205Z,97549.75
2023-03-08T21:58:50.609Z,97554.25
2023-03-08T22:01:19.363Z,97543.97
2023-03-08T22:03:47.807Z,97541.06
2023-03-08T22:06:15.931Z,97539.19
2023-03-08T22:08:46.134Z,97538.75
2023-03-08T22:11:22.131Z,97530.03
2023-03-08T22:14:02.849Z,97534.00
2023-03-08T22:16:31.478Z,97537.81
2023-03-08T22:19:02.632Z,97531.31
2023-03-08T22:21:31.323Z,97523.72
2023-03-08T22:24:00.128Z,97519.38
2023-03-08T22:26:30.388Z,97520.53
2023-03-08T22:28:58.551Z,97517.63
2023-03-08T22:31:29.579Z,97521.44
2023-03-08T22:33:58.125Z,97514.31
2023-03-08T22:36:26.486Z,97503.03
2023-03-08T22:38:54.467Z,97509.50
2023-03-08T22:41:23.360Z,97493.63
2023-03-08T22:43:52.894Z,97489.16
2023-03-08T22:46:22.311Z,97465.34
2023-03-08T22:48:57.885Z,97465.66
2023-03-08T22:51:30.919Z,97479.59
2023-03-08T22:54:03.854Z,97471.22
2023-03-08T22:56:34.024Z,97481.69
2023-03-08T22:59:07.748Z,97475.25
2023-03-08T23:01:36.346Z,97479.88
2023-03-08T23:04:05.315Z,97477.72
2023-03-08T23:06:33.757Z,97465.44
2023-03-08T23:09:02.523Z,97462.84
2023-03-08T23:11:31.530Z,97461.06
2023-03-08T23:13:59.692Z,97445.88
2023-03-08T23:16:29.264Z,97449.09
2023-03-08T23:18:57.436Z,97446.19
2023-03-08T23:21:27.420Z,97446.88
2023-03-08T23:23:55.544Z,97438.16
2023-03-08T23:26:27.166Z,97433.13
2023-03-08T23:28:55.763Z,97426.31
2023-03-08T23:31:24.461Z,97428.56
2023-03-08T23:33:54.357Z,97421.13
2023-03-08T23:36:24.492Z,97412.06
2023-03-08T23:38:53.612Z,97402.34
2023-03-08T23:41:22.090Z,97405.25
2023-03-08T23:43:50.294Z,97391.97
2023-03-08T23:46:19.843Z,97401.72
2023-03-08T23:48:48.566Z,97397.84
2023-03-08T23:51:19.761Z,97399.16
2023-03-08T23:53:49.877Z,97389.94
2023-03-08T23:56:19.753Z,97384.91
2023-03-08T23:58:49.537Z,97388.00
